Nearby METAR Reports

 

KSJC - San Jose, California, USA
Distance from station: NE 14km
Updated: 09/08/2020 11:53
Clear
Clear
 Wind from SSE
Wind: SSE 6 km/h
Temperature: 17°C
Dew Point: 10°C
Humidity: 64%
Barometer: 1012.9 hPa
Clouds: Clear
Visibility: 16 km
2020/08/09 09:53 KSJC 090953Z AUTO 15003KT 10SM CLR 17/10 A2991 RMK AO2 SLP128 T01720100
KNUQ - Moffett Nas/Mtn, California, USA
Distance from station: N 14km
Updated: 09/08/2020 12:30

 Wind from calm
Wind: Calm
Temperature: 17°C
Dew Point: 15°C
Humidity: 88%
Barometer: 1013.2 hPa
Visibility: 16 km
2020/08/09 10:30 KNUQ 091030Z AUTO 00000KT 10SM 17/15 A2992 RMK AO2
 
KPAO - Palo Alto, California, USA
Distance from station: NNW 23km
Updated: 09/08/2020 03:47
NOT Current
Clear
Clear
 Wind from NNW
Wind: NNW 22 km/h
Temperature: 21°C
Dew Point: 15°C
Humidity: 69%
Barometer: 1012.9 hPa
Clouds: Clear
Visibility: 16 km
2020/08/09 01:47 KPAO 090147Z 33012KT 10SM SKC 21/15 A2991 RMK LAST
KRHV - San Jose/Reid, California, USA
Distance from station: ENE 19km
Updated: 09/08/2020 04:50
NOT Current
Clear
Clear
 Wind from WNW
Wind: WNW 11 km/h
Temperature: 24°C
Dew Point: 14°C
Humidity: 54%
Barometer: 1012.9 hPa
Clouds: Clear
Visibility: 16 km
2020/08/09 02:50 KRHV 090250Z 29006KT 10SM SKC 24/14 A2991
 
KOAK - Oakland, California, USA
Distance from station: NNW 50km
Updated: 09/08/2020 11:53
Few Clouds
Few Clouds
 Wind from N
Wind: N 7 km/h
Temperature: 16°C
Dew Point: 13°C
Humidity: 83%
Barometer: 1013.5 hPa
Clouds: Few Clouds
Visibility: 16 km
Cloud details: Few Clouds 244 m
2020/08/09 09:53 KOAK 090953Z 35004KT 10SM FEW008 16/13 A2993 RMK AO2 SLP133 T01560128
KSQL - San Carlos Airpo, California, USA
Distance from station: NW 34km
Updated: 09/08/2020 12:35
Clear
Clear
 Wind from WNW
Wind: WNW 6 km/h
Temperature: 16°C
Dew Point: 13°C
Humidity: 83%
Barometer: 1013.2 hPa
Clouds: Clear
Visibility: 16 km
2020/08/09 10:35 KSQL 091035Z AUTO 30003KT 10SM CLR 16/13 A2992 RMK AO2
 
KSFO - San Francisco, California, USA
Distance from station: NW 49km
Updated: 09/08/2020 11:56
Few Clouds
Few Clouds
 Wind from WNW
Wind: WNW 9 km/h
Temperature: 14°C
Dew Point: 13°C
Humidity: 94%
Barometer: 1012.9 hPa
Clouds: Few Clouds
Visibility: 16 km
Cloud details: Few Clouds 213 m
2020/08/09 09:56 KSFO 090956Z 29005KT 10SM FEW007 14/13 A2991 RMK AO2 SLP130 T01440128
KE16 - San Martin, California, USA
Distance from station: ESE 43km
Updated: 09/08/2020 12:30
Clear
Clear
 Wind from calm
Wind: Calm
Temperature: 14°C
Dew Point: 11°C
Humidity: 82%
Barometer: 1014.2 hPa
Clouds: Clear
Visibility: 16 km
2020/08/09 10:30 KE16 091030Z AUTO 00000KT 10SM CLR 14/11 A2995 RMK AO2 PWINO PNO
 
KWVI - Watsonville, California, USA
Distance from station: SSE 44km
Updated: 09/08/2020 12:35
Fog, Overcast
Fog, Overcast
 Wind from calm
Wind: Calm
Temperature: 13°C
Dew Point: 13°C
Humidity: 100%
Barometer: 1013.9 hPa
Summary: Fog
Clouds: Overcast
Visibility: 0.4 km
Cloud details: Overcast 61 m
2020/08/09 10:35 KWVI 091035Z AUTO 00000KT 1/4SM FG VV002 13/13 A2994 RMK AO2 T01330128 $
KHAF - Half Moon Bay, California, USA
Distance from station: WNW 50km
Updated: 09/08/2020 12:35
Fog, Overcast
Fog, Overcast
 Wind from S
Wind: S 13 km/h
Temperature: 13°C
Dew Point: 13°C
Humidity: 100%
Barometer: 1013.5 hPa
Summary: Fog
Clouds: Overcast
Visibility: 0.8 km
Cloud details: Overcast 61 m
2020/08/09 10:35 KHAF 091035Z AUTO 18007KT 1/2SM FG OVC002 13/13 A2993 RMK AO2
 
KHWD - Hayward, California, USA
Distance from station: N 44km
Updated: 09/08/2020 11:54
Clear
Clear
 Wind from NW
Wind: NW 7 km/h
Temperature: 16°C
Dew Point: 12°C
Humidity: 77%
Barometer: 1012.9 hPa
Clouds: Clear
Visibility: 16 km
2020/08/09 09:54 KHWD 090954Z AUTO 31004KT 10SM CLR 16/12 A2991 RMK AO2 SLP139 T01610122
KLVK - Livermore, California, USA
Distance from station: NNE 51km
Updated: 09/08/2020 11:53
Clear
Clear
 Wind from calm
Wind: Calm
Temperature: 18°C
Dew Point: 12°C
Humidity: 68%
Barometer: 1012.5 hPa
Clouds: Clear
Visibility: 16 km
2020/08/09 09:53 KLVK 090953Z AUTO 00000KT 10SM CLR 18/12 A2990 RMK AO2 SLP120 T01830117